createdAt,value
2023-04-16T00:00:23.805Z,101319.25
2023-04-16T00:02:51.059Z,101327.38
2023-04-16T00:05:18.353Z,101327.88
2023-04-16T00:07:45.309Z,101325.56
2023-04-16T00:10:12.321Z,101328.31
2023-04-16T00:12:39.263Z,101332.22
2023-04-16T00:15:07.104Z,101339.66
2023-04-16T00:17:34.961Z,101334.94
2023-04-16T00:20:02.128Z,101336.81
2023-04-16T00:22:30.952Z,101337.59
2023-04-16T00:24:57.962Z,101341.00
2023-04-16T00:27:25.017Z,101334.84
2023-04-16T00:29:51.896Z,101345.25
2023-04-16T00:32:19.180Z,101338.56
2023-04-16T00:34:46.284Z,101335.91
2023-04-16T00:37:13.660Z,101345.53
2023-04-16T00:39:40.732Z,101345.81
2023-04-16T00:42:07.921Z,101349.34
2023-04-16T00:44:37.740Z,101348.38
2023-04-16T00:47:04.834Z,101352.34
2023-04-16T00:49:31.938Z,101348.78
2023-04-16T00:51:59.760Z,101340.34
2023-04-16T00:54:26.850Z,101347.28
2023-04-16T00:56:53.866Z,101339.53
2023-04-16T00:59:20.994Z,101344.72
2023-04-16T01:01:48.269Z,101334.50
2023-04-16T01:04:15.357Z,101339.63
2023-04-16T01:06:43.240Z,101328.41
2023-04-16T01:09:11.769Z,101341.13
2023-04-16T01:11:39.901Z,101340.34
2023-04-16T01:14:07.047Z,101338.47
2023-04-16T01:16:34.087Z,101339.16
2023-04-16T01:19:01.231Z,101341.16
2023-04-16T01:21:28.256Z,101345.00
2023-04-16T01:23:55.152Z,101343.78
2023-04-16T01:26:22.104Z,101339.16
2023-04-16T01:28:49.086Z,101338.34
2023-04-16T01:31:16.260Z,101339.44
2023-04-16T01:33:50.186Z,101342.78
2023-04-16T01:36:17.339Z,101342.59
2023-04-16T01:38:45.767Z,101336.59
2023-04-16T01:41:12.670Z,101341.81
2023-04-16T01:43:42.589Z,101343.06
2023-04-16T01:46:18.931Z,101346.19
2023-04-16T01:48:47.183Z,101337.94
2023-04-16T01:51:14.131Z,101346.34
2023-04-16T01:53:41.050Z,101342.66
2023-04-16T01:56:08.093Z,101347.59
2023-04-16T01:58:35.654Z,101344.97
2023-04-16T02:01:02.840Z,101345.81
2023-04-16T02:03:31.411Z,101345.03
2023-04-16T02:05:58.761Z,101349.66
2023-04-16T02:08:25.900Z,101350.03
2023-04-16T02:10:52.957Z,101339.34
2023-04-16T02:13:20.389Z,101344.03
2023-04-16T02:15:48.662Z,101336.75
2023-04-16T02:18:20.274Z,101340.66
2023-04-16T02:20:49.678Z,101338.91
2023-04-16T02:23:17.591Z,101343.59
2023-04-16T02:25:46.527Z,101350.06
2023-04-16T02:28:16.075Z,101342.84
2023-04-16T02:30:44.677Z,101347.88
2023-04-16T02:33:13.490Z,101349.66
2023-04-16T02:35:49.738Z,101351.19
2023-04-16T02:38:16.440Z,101348.25
2023-04-16T02:40:43.951Z,101346.25
2023-04-16T02:43:11.461Z,101341.94
2023-04-16T02:45:38.527Z,101356.38
2023-04-16T02:48:07.387Z,101352.91
2023-04-16T02:50:34.540Z,101355.75
2023-04-16T02:53:01.520Z,101352.56
2023-04-16T02:55:29.590Z,101356.19
2023-04-16T02:57:56.743Z,101355.16
2023-04-16T03:00:23.825Z,101354.22
2023-04-16T03:02:51.178Z,101356.00
2023-04-16T03:05:18.412Z,101351.41
2023-04-16T03:07:45.529Z,101347.19
2023-04-16T03:10:13.914Z,101357.50
2023-04-16T03:12:41.028Z,101349.16
2023-04-16T03:15:08.678Z,101352.91
2023-04-16T03:17:35.845Z,101360.06
2023-04-16T03:20:02.938Z,101356.13
2023-04-16T03:22:30.819Z,101355.75
2023-04-16T03:24:57.915Z,101358.38
2023-04-16T03:27:24.923Z,101357.59
2023-04-16T03:29:52.582Z,101358.91
2023-04-16T03:32:19.607Z,101358.91
2023-04-16T03:34:46.651Z,101361.25
2023-04-16T03:37:13.688Z,101362.72
2023-04-16T03:39:40.743Z,101361.72
2023-04-16T03:42:09.068Z,101349.66
2023-04-16T03:44:36.245Z,101354.25
2023-04-16T03:47:03.341Z,101353.41
2023-04-16T03:49:30.441Z,101349.88
2023-04-16T03:51:58.554Z,101358.59
2023-04-16T03:54:26.870Z,101355.97
2023-04-16T03:57:05.737Z,101365.97
2023-04-16T03:59:33.456Z,101357.81
2023-04-16T04:02:00.907Z,101360.94
2023-04-16T04:04:28.175Z,101366.81
2023-04-16T04:06:55.332Z,101364.25
2023-04-16T04:09:23.557Z,101371.97
2023-04-16T04:11:50.729Z,101361.09
2023-04-16T04:14:17.859Z,101366.81
2023-04-16T04:16:44.929Z,101357.66
2023-04-16T04:19:11.978Z,101354.25
2023-04-16T04:21:39.129Z,101360.19
2023-04-16T04:24:06.495Z,101357.00
2023-04-16T04:26:34.267Z,101358.56
2023-04-16T04:29:01.373Z,101352.91
2023-04-16T04:31:28.451Z,101353.75
2023-04-16T04:33:56.147Z,101357.88
2023-04-16T04:36:23.323Z,101354.22
2023-04-16T04:38:50.503Z,101351.53
2023-04-16T04:41:17.600Z,101352.53
2023-04-16T04:43:44.596Z,101351.97
2023-04-16T04:46:12.677Z,101347.47
2023-04-16T04:48:41.017Z,101351.84
2023-04-16T04:51:08.050Z,101350.22
2023-04-16T04:53:35.135Z,101356.53
2023-04-16T04:56:11.781Z,101343.59
2023-04-16T04:58:40.640Z,101348.00
2023-04-16T05:01:07.775Z,101348.59
2023-04-16T05:03:34.961Z,101342.41
2023-04-16T05:06:01.987Z,101342.22
2023-04-16T05:08:29.035Z,101351.47
2023-04-16T05:10:56.100Z,101345.47
2023-04-16T05:13:23.062Z,101346.03
2023-04-16T05:15:50.024Z,101346.47
2023-04-16T05:18:17.164Z,101342.84
2023-04-16T05:20:44.154Z,101345.13
2023-04-16T05:23:11.331Z,101337.38
2023-04-16T05:25:38.448Z,101343.09
2023-04-16T05:28:05.569Z,101347.84
2023-04-16T05:30:32.577Z,101341.44
2023-04-16T05:33:00.020Z,101340.88
2023-04-16T05:35:27.784Z,101331.75
2023-04-16T05:37:54.916Z,101340.78
2023-04-16T05:40:22.094Z,101339.56
2023-04-16T05:42:49.412Z,101337.34
2023-04-16T05:45:16.523Z,101341.88
2023-04-16T05:47:43.675Z,101335.44
2023-04-16T05:50:11.130Z,101344.41
2023-04-16T05:52:38.603Z,101350.75
2023-04-16T05:55:06.275Z,101354.38
2023-04-16T05:57:33.546Z,101353.22
2023-04-16T06:00:00.580Z,101349.31
2023-04-16T06:02:27.945Z,101347.31
2023-04-16T06:04:55.013Z,101348.75
2023-04-16T06:07:22.547Z,101346.38
2023-04-16T06:09:49.532Z,101356.09
2023-04-16T06:12:16.586Z,101357.88
2023-04-16T06:14:43.539Z,101352.13
2023-04-16T06:17:10.558Z,101357.81
2023-04-16T06:19:37.601Z,101359.25
2023-04-16T06:22:06.531Z,101353.72
2023-04-16T06:24:34.285Z,101359.00
2023-04-16T06:27:01.153Z,101359.94
2023-04-16T06:29:40.060Z,101364.75
2023-04-16T06:32:08.367Z,101356.53
2023-04-16T06:34:35.343Z,101357.94
2023-04-16T06:37:02.402Z,101358.47
2023-04-16T06:39:29.451Z,101352.69
2023-04-16T06:41:56.529Z,101356.06
2023-04-16T06:44:23.523Z,101352.69
2023-04-16T06:46:51.126Z,101346.78
2023-04-16T06:49:18.059Z,101346.03
2023-04-16T06:51:45.081Z,101340.13
2023-04-16T06:54:12.150Z,101339.22
2023-04-16T06:56:39.188Z,101341.97
2023-04-16T06:59:07.037Z,101333.19
2023-04-16T07:01:34.340Z,101330.47
2023-04-16T07:04:01.531Z,101334.03
2023-04-16T07:06:28.680Z,101329.94
2023-04-16T07:08:55.781Z,101329.28
2023-04-16T07:11:22.766Z,101340.78
2023-04-16T07:13:51.259Z,101338.97
2023-04-16T07:16:18.339Z,101340.53
2023-04-16T07:18:45.593Z,101340.53
2023-04-16T07:21:12.705Z,101339.78
2023-04-16T07:23:39.891Z,101334.91
2023-04-16T07:26:07.220Z,101335.34
2023-04-16T07:28:34.351Z,101329.63
2023-04-16T07:31:01.336Z,101328.19
2023-04-16T07:33:28.428Z,101331.00
2023-04-16T07:35:55.483Z,101327.78
2023-04-16T07:38:22.511Z,101326.22
2023-04-16T07:40:49.601Z,101324.69
2023-04-16T07:43:16.647Z,101328.22
2023-04-16T07:45:43.638Z,101328.50
2023-04-16T07:48:11.104Z,101332.41
2023-04-16T07:50:38.146Z,101330.03
2023-04-16T07:53:07.672Z,101318.88
2023-04-16T07:55:34.748Z,101321.66
2023-04-16T07:58:02.914Z,101313.09
2023-04-16T08:00:29.981Z,101313.09
2023-04-16T08:02:57.146Z,101310.75
2023-04-16T08:05:24.355Z,101301.56
2023-04-16T08:07:51.370Z,101305.97
2023-04-16T08:10:18.427Z,101301.81
2023-04-16T08:12:45.607Z,101292.44
2023-04-16T08:15:12.715Z,101298.69
2023-04-16T08:17:39.752Z,101292.88
2023-04-16T08:20:07.570Z,101300.06
2023-04-16T08:22:34.489Z,101288.84
2023-04-16T08:25:01.829Z,101290.59
2023-04-16T08:27:31.464Z,101287.09
2023-04-16T08:29:58.569Z,101290.41
2023-04-16T08:32:26.456Z,101286.97
2023-04-16T08:34:53.575Z,101280.09
2023-04-16T08:37:20.683Z,101282.94
2023-04-16T08:39:47.590Z,101281.31
2023-04-16T08:42:22.870Z,101282.28
2023-04-16T08:44:50.109Z,101277.91
2023-04-16T08:47:17.131Z,101271.88
2023-04-16T08:49:45.001Z,101272.06
2023-04-16T08:52:16.165Z,101264.38
2023-04-16T08:54:57.314Z,101263.63
2023-04-16T08:57:25.793Z,101252.53
2023-04-16T08:59:54.062Z,101256.22
2023-04-16T09:02:21.242Z,101249.25
2023-04-16T09:04:48.794Z,101252.72
2023-04-16T09:07:15.982Z,101255.25
2023-04-16T09:09:42.920Z,101250.13
2023-04-16T09:12:10.090Z,101244.97
2023-04-16T09:14:38.256Z,101244.94
2023-04-16T09:17:05.238Z,101244.09
2023-04-16T09:19:32.292Z,101249.41
2023-04-16T09:21:59.390Z,101238.94
2023-04-16T09:24:26.376Z,101240.59
2023-04-16T09:26:53.568Z,101244.00
2023-04-16T09:29:40.256Z,101239.47
2023-04-16T09:32:11.578Z,101236.78
2023-04-16T09:35:08.526Z,101236.13
2023-04-16T09:37:35.527Z,101238.78
2023-04-16T09:40:06.687Z,101234.47
2023-04-16T09:42:36.255Z,101230.03
2023-04-16T09:45:05.568Z,101233.56
2023-04-16T09:47:43.656Z,101224.94
2023-04-16T09:50:16.470Z,101216.25
2023-04-16T09:52:47.933Z,101224.09
2023-04-16T09:55:15.501Z,101224.09
2023-04-16T09:57:42.470Z,101221.63
2023-04-16T10:00:10.264Z,101223.38
2023-04-16T10:02:41.758Z,101216.44
2023-04-16T10:05:09.651Z,101220.88
2023-04-16T10:07:36.925Z,101219.22
2023-04-16T10:10:04.376Z,101214.09
2023-04-16T10:12:35.759Z,101209.00
2023-04-16T10:15:02.738Z,101209.13
2023-04-16T10:17:31.663Z,101207.44
2023-04-16T10:19:58.714Z,101199.66
2023-04-16T10:22:26.236Z,101191.81
2023-04-16T10:24:53.266Z,101200.56
2023-04-16T10:27:20.394Z,101198.75
2023-04-16T10:29:47.403Z,101192.66
2023-04-16T10:32:14.464Z,101205.72
2023-04-16T10:34:41.469Z,101197.88
2023-04-16T10:37:08.432Z,101196.09
2023-04-16T10:39:37.511Z,101199.59
2023-04-16T10:42:12.080Z,101203.06
2023-04-16T10:44:45.278Z,101197.72
2023-04-16T10:47:13.527Z,101191.53
2023-04-16T10:49:41.131Z,101200.19
2023-04-16T10:52:12.768Z,101197.56
2023-04-16T10:54:39.996Z,101182.66
2023-04-16T10:57:12.350Z,101183.56
2023-04-16T10:59:39.865Z,101178.31
2023-04-16T11:02:17.908Z,101179.19
2023-04-16T11:04:49.218Z,101179.25
2023-04-16T11:07:20.664Z,101175.00
2023-04-16T11:10:02.554Z,101174.22
2023-04-16T11:12:44.983Z,101179.44
2023-04-16T11:15:13.334Z,101175.97
2023-04-16T11:17:47.182Z,101172.47
2023-04-16T11:20:20.424Z,101165.53
2023-04-16T11:22:53.116Z,101162.91
2023-04-16T11:25:30.287Z,101160.25
2023-04-16T11:28:01.161Z,101158.56
2023-04-16T11:30:29.502Z,101154.19
2023-04-16T11:32:56.648Z,101147.31
2023-04-16T11:35:23.798Z,101145.63
2023-04-16T11:37:50.695Z,101142.97
2023-04-16T11:40:17.734Z,101144.75
2023-04-16T11:42:44.985Z,101146.41
2023-04-16T11:45:12.316Z,101142.13
2023-04-16T11:47:46.130Z,101136.94
2023-04-16T11:50:22.163Z,101134.38
2023-04-16T11:52:49.872Z,101123.03
2023-04-16T11:55:16.829Z,101126.50
2023-04-16T11:57:44.010Z,101121.31
2023-04-16T12:00:14.066Z,101117.84
2023-04-16T12:02:55.656Z,101116.97
2023-04-16T12:05:39.413Z,101116.97
2023-04-16T12:08:10.719Z,101115.22
2023-04-16T12:10:54.062Z,101111.78
2023-04-16T12:13:21.210Z,101124.84
2023-04-16T12:15:55.309Z,101111.75
2023-04-16T12:18:23.856Z,101106.53
2023-04-16T12:20:53.578Z,101113.50
2023-04-16T12:23:28.066Z,101100.50
2023-04-16T12:25:55.270Z,101101.34
2023-04-16T12:28:28.126Z,101108.31
2023-04-16T12:30:55.209Z,101111.78
2023-04-16T12:33:22.232Z,101105.69
2023-04-16T12:35:49.411Z,101095.25
2023-04-16T12:38:16.976Z,101098.72
2023-04-16T12:40:44.159Z,101090.03
2023-04-16T12:43:11.229Z,101085.66
2023-04-16T12:45:39.052Z,101091.69
2023-04-16T12:48:06.250Z,101086.34
2023-04-16T12:50:33.274Z,101078.50
2023-04-16T12:53:00.313Z,101077.59
2023-04-16T12:55:27.474Z,101076.78
2023-04-16T12:57:54.501Z,101073.38
2023-04-16T13:00:21.585Z,101069.84
2023-04-16T13:02:48.757Z,101068.09
2023-04-16T13:05:17.347Z,101066.31
2023-04-16T13:07:44.330Z,101061.09
2023-04-16T13:10:11.722Z,101054.13
2023-04-16T13:12:38.866Z,101054.09
2023-04-16T13:15:06.324Z,101049.66
2023-04-16T13:17:33.698Z,101050.44
2023-04-16T13:20:00.763Z,101046.88
2023-04-16T13:22:27.849Z,101047.72
2023-04-16T13:24:54.755Z,101039.84
2023-04-16T13:27:21.874Z,101048.47
2023-04-16T13:29:48.884Z,101035.38
2023-04-16T13:32:16.232Z,101035.31
2023-04-16T13:34:43.160Z,101043.97
2023-04-16T13:37:10.374Z,101035.13
2023-04-16T13:39:37.364Z,101033.38
2023-04-16T13:42:04.571Z,101029.81
2023-04-16T13:44:31.548Z,101033.13
2023-04-16T13:46:58.999Z,101030.34
2023-04-16T13:49:26.211Z,101023.22
2023-04-16T13:51:53.183Z,101021.41
2023-04-16T13:54:20.429Z,101024.94
2023-04-16T13:56:47.396Z,101023.25
2023-04-16T13:59:15.724Z,101021.53
2023-04-16T14:01:42.652Z,101018.13
2023-04-16T14:04:09.779Z,101019.91
2023-04-16T14:06:36.900Z,101020.72
2023-04-16T14:09:04.481Z,101019.75
2023-04-16T14:11:31.728Z,101013.66
2023-04-16T14:13:58.862Z,101011.94
2023-04-16T14:16:26.465Z,101005.84
2023-04-16T14:18:53.639Z,101009.28
2023-04-16T14:21:20.900Z,101011.88
2023-04-16T14:23:48.040Z,101006.72
2023-04-16T14:26:14.948Z,101003.28
2023-04-16T14:28:42.167Z,101002.38
2023-04-16T14:31:09.333Z,101001.41
2023-04-16T14:33:36.964Z,101011.78
2023-04-16T14:36:04.295Z,101001.31
2023-04-16T14:38:31.417Z,100990.06
2023-04-16T14:41:00.304Z,100989.16
2023-04-16T14:43:27.589Z,100987.34
2023-04-16T14:45:54.678Z,100989.06
2023-04-16T14:48:22.182Z,100983.81
2023-04-16T14:50:49.211Z,100984.66
2023-04-16T14:53:16.446Z,100991.59
2023-04-16T14:55:44.144Z,100977.66
2023-04-16T14:58:11.248Z,100977.63
2023-04-16T15:00:38.239Z,100981.91
2023-04-16T15:03:06.058Z,100980.16
2023-04-16T15:05:33.238Z,100974.94
2023-04-16T15:08:00.717Z,100976.66
2023-04-16T15:10:28.080Z,100967.91
2023-04-16T15:12:55.073Z,100970.44
2023-04-16T15:15:22.075Z,100964.31
2023-04-16T15:17:51.047Z,100970.31
2023-04-16T15:20:18.261Z,100963.34
2023-04-16T15:22:45.232Z,100960.72
2023-04-16T15:25:12.633Z,100962.41
2023-04-16T15:27:39.632Z,100965.81
2023-04-16T15:30:07.458Z,100964.06
2023-04-16T15:32:34.522Z,100970.97
2023-04-16T15:35:02.828Z,100963.97
2023-04-16T15:37:31.114Z,100969.97
2023-04-16T15:39:58.159Z,100967.28
2023-04-16T15:42:25.253Z,100975.88
2023-04-16T15:44:52.170Z,100965.41
2023-04-16T15:47:19.198Z,100972.19
2023-04-16T15:49:46.195Z,100969.56
2023-04-16T15:52:13.398Z,100966.06
2023-04-16T15:54:40.903Z,100974.66
2023-04-16T15:57:07.967Z,100964.16
2023-04-16T15:59:34.988Z,100966.66
2023-04-16T16:02:02.564Z,100974.38
2023-04-16T16:04:30.563Z,100970.84
2023-04-16T16:06:57.564Z,100975.94
2023-04-16T16:09:28.034Z,100972.38
2023-04-16T16:11:55.176Z,100971.38
2023-04-16T16:14:22.233Z,100967.88
2023-04-16T16:16:49.302Z,100973.81
2023-04-16T16:19:16.708Z,100972.00
2023-04-16T16:21:43.770Z,100974.44
2023-04-16T16:24:10.925Z,100976.06
2023-04-16T16:26:38.154Z,100972.44
2023-04-16T16:29:05.727Z,100976.59
2023-04-16T16:31:32.873Z,100979.88
2023-04-16T16:33:59.866Z,100979.69
2023-04-16T16:36:27.488Z,100983.91
2023-04-16T16:38:55.229Z,100982.03
2023-04-16T16:41:22.567Z,100977.56
2023-04-16T16:43:50.385Z,100977.44
2023-04-16T16:46:17.493Z,100982.50
2023-04-16T16:48:44.536Z,100979.81
2023-04-16T16:51:11.628Z,100982.25
2023-04-16T16:53:38.841Z,100983.88
2023-04-16T16:56:09.143Z,100982.84
2023-04-16T16:58:36.110Z,100987.03
2023-04-16T17:01:03.261Z,100985.19
2023-04-16T17:03:30.458Z,100989.41
2023-04-16T17:05:57.537Z,100986.72
2023-04-16T17:08:24.527Z,100978.06
2023-04-16T17:10:51.674Z,100981.41
2023-04-16T17:13:20.563Z,100989.09
2023-04-16T17:15:47.484Z,100983.81
2023-04-16T17:18:14.458Z,100980.28
2023-04-16T17:20:41.419Z,100984.47
2023-04-16T17:23:08.524Z,100983.47
2023-04-16T17:25:35.723Z,100983.31
2023-04-16T17:28:03.183Z,100982.38
2023-04-16T17:30:31.297Z,100991.81
2023-04-16T17:32:58.504Z,100988.31
2023-04-16T17:35:25.734Z,100991.69
2023-04-16T17:37:52.745Z,100989.91
2023-04-16T17:40:20.045Z,100984.66
2023-04-16T17:42:48.833Z,100984.53
2023-04-16T17:45:16.011Z,100986.97
2023-04-16T17:47:44.472Z,100989.38
2023-04-16T17:50:12.075Z,100985.81
2023-04-16T17:52:39.139Z,100984.81
2023-04-16T17:55:07.768Z,100985.56
2023-04-16T17:57:34.927Z,100981.13
2023-04-16T18:00:01.876Z,100976.59
2023-04-16T18:02:40.829Z,100981.63
2023-04-16T18:05:08.295Z,100978.06
2023-04-16T18:07:36.455Z,100974.50
2023-04-16T18:10:03.572Z,100982.97
2023-04-16T18:12:30.852Z,100974.22
2023-04-16T18:14:57.877Z,100976.69
2023-04-16T18:17:25.132Z,100969.59
2023-04-16T18:19:52.133Z,100974.69
2023-04-16T18:22:19.152Z,100971.97
2023-04-16T18:24:46.803Z,100971.84
2023-04-16T18:27:13.824Z,100977.75
2023-04-16T18:29:41.018Z,100969.91
2023-04-16T18:32:11.690Z,100964.59
2023-04-16T18:34:39.537Z,100962.78
2023-04-16T18:37:06.943Z,100959.22
2023-04-16T18:39:34.051Z,100965.13
2023-04-16T18:42:01.539Z,100959.03
2023-04-16T18:44:28.511Z,100958.03
2023-04-16T18:46:55.686Z,100953.66
2023-04-16T18:49:22.800Z,100956.09
2023-04-16T18:51:49.830Z,100955.97
2023-04-16T18:54:16.842Z,100966.22
2023-04-16T18:56:43.897Z,100954.06
2023-04-16T18:59:10.991Z,100954.78
2023-04-16T19:01:38.253Z,100950.34
2023-04-16T19:04:05.828Z,100950.22
2023-04-16T19:06:33.048Z,100949.97
2023-04-16T19:09:00.335Z,100954.22
2023-04-16T19:11:27.458Z,100950.78
2023-04-16T19:13:54.396Z,100952.53
2023-04-16T19:16:21.433Z,100952.56
2023-04-16T19:18:48.484Z,100950.78
2023-04-16T19:21:15.604Z,100950.78
2023-04-16T19:23:42.907Z,100945.53
2023-04-16T19:26:09.862Z,100945.59
2023-04-16T19:28:38.778Z,100945.59
2023-04-16T19:31:06.498Z,100950.69
2023-04-16T19:33:33.622Z,100953.09
2023-04-16T19:36:01.897Z,100948.72
2023-04-16T19:38:29.263Z,100951.00
2023-04-16T19:40:56.378Z,100941.28
2023-04-16T19:43:23.677Z,100944.53
2023-04-16T19:45:53.784Z,100949.63
2023-04-16T19:48:21.466Z,100960.56
2023-04-16T19:50:48.624Z,100952.56
2023-04-16T19:53:17.277Z,100961.00
2023-04-16T19:55:44.375Z,100957.47
2023-04-16T19:58:11.626Z,100958.19
2023-04-16T20:00:40.671Z,100960.66
2023-04-16T20:03:07.910Z,100961.50
2023-04-16T20:05:34.873Z,100956.38
2023-04-16T20:08:01.939Z,100962.34
2023-04-16T20:10:31.551Z,100964.88
2023-04-16T20:12:58.889Z,100964.78
2023-04-16T20:15:26.023Z,100963.84
2023-04-16T20:17:53.471Z,100962.94
2023-04-16T20:20:22.751Z,100953.41
2023-04-16T20:22:49.997Z,100961.03
2023-04-16T20:25:19.158Z,100958.28
2023-04-16T20:27:46.594Z,100962.56
2023-04-16T20:30:14.121Z,100961.78
2023-04-16T20:32:41.234Z,100966.06
2023-04-16T20:35:10.993Z,100964.34
2023-04-16T20:37:38.663Z,100961.56
2023-04-16T20:40:13.875Z,100968.34
2023-04-16T20:42:41.375Z,100962.13
2023-04-16T20:45:09.239Z,100966.22
2023-04-16T20:47:36.365Z,100964.28
2023-04-16T20:50:03.823Z,100963.97
2023-04-16T20:52:31.204Z,100965.56
2023-04-16T20:54:58.167Z,100961.16
2023-04-16T20:57:26.229Z,100961.63
2023-04-16T20:59:53.231Z,100962.38
2023-04-16T21:02:20.920Z,100963.97
2023-04-16T21:04:48.253Z,100957.78
2023-04-16T21:07:15.587Z,100960.25
2023-04-16T21:09:42.578Z,100964.22
2023-04-16T21:12:09.554Z,100964.84
2023-04-16T21:14:36.644Z,100958.53
2023-04-16T21:17:03.527Z,100965.25
2023-04-16T21:19:31.112Z,100966.91
2023-04-16T21:21:58.088Z,100965.06
2023-04-16T21:24:25.025Z,100964.13
2023-04-16T21:26:52.109Z,100971.72
2023-04-16T21:29:19.239Z,100963.31
2023-04-16T21:31:46.405Z,100974.53
2023-04-16T21:34:13.402Z,100965.13
2023-04-16T21:36:40.452Z,100971.16
2023-04-16T21:39:07.529Z,100973.97
2023-04-16T21:41:34.531Z,100969.00
2023-04-16T21:44:01.696Z,100972.63
2023-04-16T21:46:28.781Z,100973.56
2023-04-16T21:48:56.012Z,100977.25
2023-04-16T21:51:29.198Z,100971.34
2023-04-16T21:53:57.000Z,100972.34
2023-04-16T21:56:27.210Z,100973.34
2023-04-16T21:58:54.210Z,100965.78
2023-04-16T22:01:21.354Z,100966.75
2023-04-16T22:03:52.230Z,100970.09
2023-04-16T22:06:20.536Z,100970.28
2023-04-16T22:08:49.884Z,100968.66
2023-04-16T22:11:16.996Z,100968.72
2023-04-16T22:13:46.383Z,100973.91
2023-04-16T22:16:13.542Z,100973.91
2023-04-16T22:18:41.157Z,100973.88
2023-04-16T22:21:08.272Z,100975.53
2023-04-16T22:23:35.349Z,100969.16
2023-04-16T22:26:02.771Z,100975.13
2023-04-16T22:28:29.976Z,100969.94
2023-04-16T22:30:57.059Z,100975.13
2023-04-16T22:33:24.072Z,100968.19
2023-04-16T22:35:51.434Z,100978.53
2023-04-16T22:38:18.355Z,100971.41
2023-04-16T22:40:47.869Z,100978.13
2023-04-16T22:43:17.542Z,100984.69
2023-04-16T22:45:46.466Z,100976.84
2023-04-16T22:48:13.718Z,100978.59
2023-04-16T22:50:45.974Z,100973.25
2023-04-16T22:53:13.023Z,100982.69
2023-04-16T22:55:40.121Z,100977.72
2023-04-16T22:58:07.142Z,100974.41
2023-04-16T23:00:34.434Z,100974.44
2023-04-16T23:03:01.606Z,100973.47
2023-04-16T23:05:28.910Z,100975.66
2023-04-16T23:07:56.026Z,100970.16
2023-04-16T23:10:23.057Z,100972.38
2023-04-16T23:12:50.066Z,100977.31
2023-04-16T23:15:17.467Z,100979.84
2023-04-16T23:17:45.122Z,100979.16
2023-04-16T23:20:13.246Z,100972.25
2023-04-16T23:22:41.224Z,100969.44
2023-04-16T23:25:11.507Z,100979.47
2023-04-16T23:27:38.472Z,100980.97
2023-04-16T23:30:05.944Z,100973.94
2023-04-16T23:32:34.239Z,100984.44
2023-04-16T23:35:01.473Z,100981.19
2023-04-16T23:37:29.694Z,100980.34
2023-04-16T23:39:56.848Z,100984.66
2023-04-16T23:42:23.849Z,100980.25
2023-04-16T23:44:50.975Z,100974.66
2023-04-16T23:47:18.059Z,100979.63
2023-04-16T23:49:45.176Z,100977.09
2023-04-16T23:52:12.202Z,100975.66
2023-04-16T23:54:39.099Z,100982.72
2023-04-16T23:57:06.141Z,100976.72
2023-04-16T23:59:33.488Z,100981.53
